Time;durP1;ratioP1;P1;durP2;ratioP2;P2;SDS_P1;SDS_P2;PMS_P1;PMS_P2;Temp;Humidity;BMP_temperature;BMP_pressure;BME280_temperature;BME280_humidity;BME280_pressure;Samples;Min_cycle;Max_cycle;Signal;HPM_P1;HPM_P2
2023/10/24 00:00:39;;;;;;;3.08;2.03;;;13.70;99.90;;;13.67;100.00;99835.22;5223157;28;20072;-48
2023/10/24 00:03:11;;;;;;;4.10;2.65;;;13.60;99.90;;;13.66;100.00;99841.34;5227087;28;20041;-48
2023/10/24 00:05:44;;;;;;;6.03;2.63;;;13.60;99.90;;;13.60;100.00;99838.66;5217259;28;20056;-49
2023/10/24 00:08:16;;;;;;;4.80;2.47;;;13.60;99.90;;;13.63;100.00;99830.84;5222239;28;20045;-49
2023/10/24 00:10:48;;;;;;;4.22;2.20;;;13.60;99.90;;;13.61;100.00;99823.84;5217274;28;20049;-50
2023/10/24 00:13:21;;;;;;;5.65;2.40;;;13.60;99.90;;;13.58;100.00;99814.22;5218241;28;20064;-49
2023/10/24 00:15:54;;;;;;;4.45;2.35;;;13.50;99.90;;;13.53;100.00;99826.41;5222591;28;20126;-51
2023/10/24 00:18:28;;;;;;;5.35;2.50;;;13.50;99.90;;;13.49;100.00;99829.84;5223792;28;20294;-51
2023/10/24 00:21:00;;;;;;;5.95;2.65;;;13.50;99.90;;;13.46;100.00;99827.22;5217409;28;20060;-49
2023/10/24 00:23:33;;;;;;;3.25;1.88;;;13.50;99.90;;;13.45;100.00;99817.63;5217890;28;20041;-52
2023/10/24 00:26:08;;;;;;;3.67;1.92;;;13.40;99.90;;;13.45;100.00;99807.16;5221472;28;20053;-51
2023/10/24 00:28:42;;;;;;;5.00;2.15;;;13.40;99.90;;;13.41;100.00;99810.59;5222097;28;20049;-50
2023/10/24 00:31:15;;;;;;;2.95;1.65;;;13.40;99.90;;;13.38;100.00;99816.69;5215926;28;20504;-50
2023/10/24 00:33:48;;;;;;;5.05;2.10;;;13.40;99.90;;;13.38;100.00;99810.59;5224555;28;20045;-50
2023/10/24 00:36:20;;;;;;;4.15;1.88;;;13.30;99.90;;;13.36;100.00;99802.69;5226267;28;20049;-49
2023/10/24 00:38:53;;;;;;;3.70;1.85;;;13.40;99.90;;;13.36;100.00;99807.94;5218588;28;20041;-49
2023/10/24 00:41:27;;;;;;;4.20;2.30;;;13.30;99.90;;;13.37;100.00;99824.53;5221992;28;20055;-50
2023/10/24 00:43:59;;;;;;;5.05;2.58;;;13.30;99.90;;;13.38;100.00;99815.81;5219921;28;20056;-49
2023/10/24 00:46:34;;;;;;;4.97;2.13;;;13.30;99.90;;;13.39;100.00;99828.03;5216876;28;20053;-49
2023/10/24 00:49:07;;;;;;;4.38;2.17;;;13.30;99.90;;;13.39;100.00;99817.56;5221744;28;20368;-49
2023/10/24 00:51:40;;;;;;;5.15;2.00;;;13.30;99.90;;;13.42;100.00;99820.19;5221950;28;20049;-50
2023/10/24 00:54:30;;;;;;;5.57;2.78;;;13.40;99.90;;;13.42;100.00;99822.81;5193986;28;20437;-50
2023/10/24 00:57:06;;;;;;;5.97;1.98;;;13.40;99.90;;;13.42;100.00;99833.28;5219825;28;20103;-49
2023/10/24 00:59:42;;;;;;;2.95;1.88;;;13.40;99.90;;;13.42;100.00;99833.28;5219030;28;20068;-49
2023/10/24 01:02:19;;;;;;;2.72;2.00;;;13.40;99.90;;;13.44;100.00;99824.59;5213389;28;20129;-48
2023/10/24 01:04:56;;;;;;;4.30;2.03;;;13.40;99.90;;;13.45;100.00;99828.09;5214343;28;20055;-49
2023/10/24 01:07:28;;;;;;;2.55;1.67;;;13.40;99.90;;;13.46;100.00;99820.25;5214384;28;20052;-49
2023/10/24 01:10:01;;;;;;;4.53;2.00;;;13.40;99.90;;;13.48;100.00;99822.88;5221481;28;20450;-50
2023/10/24 01:12:36;;;;;;;4.97;2.20;;;13.40;99.90;;;13.47;100.00;99818.50;5219956;28;20056;-50
2023/10/24 01:15:10;;;;;;;5.22;1.80;;;13.40;99.90;;;13.47;100.00;99815.88;5218318;28;20449;-51
2023/10/24 01:17:52;;;;;;;3.25;1.92;;;13.40;99.90;;;13.46;100.00;99816.75;5220714;28;20037;-51
2023/10/24 01:20:24;;;;;;;2.97;2.10;;;13.40;99.90;;;13.45;100.00;99817.63;5213867;28;20040;-49
2023/10/24 01:22:58;;;;;;;3.30;1.85;;;13.40;99.90;;;13.47;100.00;99827.22;5226255;28;20148;-49
2023/10/24 01:25:31;;;;;;;5.57;2.13;;;13.40;99.90;;;13.44;100.00;99821.97;5220227;28;20450;-49
2023/10/24 01:28:04;;;;;;;4.68;1.83;;;13.40;99.90;;;13.44;100.00;99826.34;5219625;28;20056;-51
2023/10/24 01:30:39;;;;;;;4.03;2.00;;;13.40;99.90;;;13.44;100.00;99815.88;5221164;28;20496;-50
2023/10/24 01:33:12;;;;;;;4.85;2.20;;;13.40;99.90;;;13.42;100.00;99823.69;5220847;28;20057;-50
2023/10/24 01:35:44;;;;;;;2.80;1.83;;;13.40;99.90;;;13.43;100.00;99819.31;5218046;28;20532;-49
2023/10/24 01:38:21;;;;;;;3.88;2.08;;;13.40;99.90;;;13.41;100.00;99802.75;5214599;28;20049;-49
2023/10/24 01:40:53;;;;;;;2.22;1.65;;;13.40;99.90;;;13.40;100.00;99793.13;5217516;28;20056;-49
2023/10/24 01:43:26;;;;;;;3.92;1.92;;;13.40;99.90;;;13.42;100.00;99787.03;5221482;28;20049;-51
2023/10/24 01:45:58;;;;;;;2.55;1.63;;;13.40;99.90;;;13.43;100.00;99782.69;5214522;28;20057;-50
2023/10/24 01:48:30;;;;;;;2.63;1.77;;;13.40;99.90;;;13.46;100.00;99798.44;5217428;28;20047;-51
2023/10/24 01:51:03;;;;;;;3.03;1.70;;;13.40;99.90;;;13.46;100.00;99798.44;5214784;28;20045;-51
2023/10/24 01:53:37;;;;;;;4.85;2.13;;;13.40;99.90;;;13.45;100.00;99812.38;5220441;28;20048;-49
2023/10/24 01:56:11;;;;;;;3.08;1.70;;;13.40;99.90;;;13.46;100.00;99808.91;5226605;28;20524;-49
2023/10/24 01:58:44;;;;;;;4.03;2.30;;;13.40;99.90;;;13.46;100.00;99806.28;5221753;28;20049;-48
2023/10/24 02:01:16;;;;;;;6.55;1.90;;;13.40;99.90;;;13.46;100.00;99803.66;5215137;28;20052;-48
2023/10/24 02:03:48;;;;;;;2.28;1.63;;;13.40;99.90;;;13.46;100.00;99814.13;5216236;28;20597;-49
2023/10/24 02:06:24;;;;;;;2.22;1.42;;;13.40;99.90;;;13.47;100.00;99810.66;5222512;28;20068;-51
2023/10/24 02:08:58;;;;;;;2.00;1.58;;;13.40;99.90;;;13.49;100.00;99803.66;5217427;28;20437;-49
2023/10/24 02:11:30;;;;;;;3.38;1.58;;;13.40;99.90;;;13.52;100.00;99808.94;5219213;28;20060;-49
2023/10/24 02:14:02;;;;;;;5.25;1.90;;;13.50;99.90;;;13.53;100.00;99815.94;5209396;28;20061;-49
2023/10/24 02:16:41;;;;;;;2.85;1.70;;;13.40;99.90;;;13.56;100.00;99808.06;5213440;28;20057;-48
2023/10/24 02:19:14;;;;;;;2.90;1.75;;;13.50;99.90;;;13.58;100.00;99824.69;5223664;28;20431;-48
2023/10/24 02:21:46;;;;;;;2.97;1.63;;;13.50;99.90;;;13.57;100.00;99818.59;5223570;28;20037;-49
2023/10/24 02:24:20;;;;;;;4.07;2.08;;;13.50;99.90;;;13.58;100.00;99836.03;5222253;28;20409;-51
2023/10/24 02:26:52;;;;;;;3.88;1.70;;;13.50;99.90;;;13.60;100.00;99833.44;5221933;28;20132;-49
2023/10/24 02:29:25;;;;;;;3.17;1.50;;;13.60;99.90;;;13.61;100.00;99822.09;5223989;28;20068;-49
2023/10/24 02:31:57;;;;;;;2.08;1.40;;;13.60;99.90;;;13.62;100.00;99826.44;5224609;28;20576;-48
2023/10/24 02:34:30;;;;;;;2.53;1.55;;;13.50;99.90;;;13.60;100.00;99830.81;5224896;28;20067;-49
2023/10/24 02:37:02;;;;;;;2.03;1.23;;;13.50;99.90;;;13.63;100.00;99827.31;5222848;28;20415;-49
2023/10/24 02:39:36;;;;;;;2.75;1.45;;;13.60;99.90;;;13.62;100.00;99804.63;5218731;28;20048;-49
2023/10/24 02:42:08;;;;;;;3.40;1.52;;;13.60;99.90;;;13.59;100.00;99805.50;5211881;28;20064;-51
2023/10/24 02:44:41;;;;;;;3.78;1.40;;;13.50;99.90;;;13.58;100.00;99816.84;5216309;28;20504;-50
2023/10/24 02:47:13;;;;;;;3.20;1.60;;;13.50;99.90;;;13.58;100.00;99816.84;5236354;28;20045;-50
2023/10/24 02:49:45;;;;;;;2.38;1.30;;;13.50;99.90;;;13.58;100.00;99811.59;5220362;28;20042;-49
2023/10/24 02:52:17;;;;;;;2.35;1.30;;;13.50;99.90;;;13.58;100.00;99824.69;5224038;28;20543;-49
2023/10/24 02:54:51;;;;;;;3.15;1.58;;;13.50;99.90;;;13.57;100.00;99818.59;5216607;28;20479;-49
2023/10/24 02:57:24;;;;;;;2.42;1.27;;;13.50;99.90;;;13.56;100.00;99822.06;5220271;28;20555;-48
2023/10/24 02:59:57;;;;;;;2.75;1.40;;;13.50;99.90;;;13.58;100.00;99840.41;5235853;28;20049;-49
2023/10/24 03:02:30;;;;;;;2.67;1.15;;;13.50;99.90;;;13.58;100.00;99830.81;5224992;28;20056;-50
2023/10/24 03:05:03;;;;;;;4.15;1.83;;;13.50;99.90;;;13.60;100.00;99828.19;5222624;28;20124;-49
2023/10/24 03:07:35;;;;;;;2.78;1.90;;;13.50;99.90;;;13.59;100.00;99831.69;5220407;28;20466;-51
2023/10/24 03:10:10;;;;;;;4.78;2.95;;;13.50;99.90;;;13.60;100.00;99837.78;5232713;28;20045;-50
2023/10/24 03:12:45;;;;;;;4.60;3.28;;;13.50;99.90;;;13.60;100.00;99837.78;5216874;28;20056;-50
2023/10/24 03:15:18;;;;;;;6.40;3.33;;;13.50;99.90;;;13.61;100.00;99835.19;5220080;28;20055;-50
2023/10/24 03:17:50;;;;;;;3.47;2.72;;;13.50;99.90;;;13.61;100.00;99835.19;5220574;28;20520;-49
2023/10/24 03:20:23;;;;;;;3.58;2.45;;;13.60;99.90;;;13.59;100.00;99826.44;5217324;28;20038;-49
2023/10/24 03:22:56;;;;;;;3.90;2.45;;;13.50;99.90;;;13.58;100.00;99815.09;5223090;28;20511;-50
2023/10/24 03:25:30;;;;;;;3.03;2.38;;;13.50;99.90;;;13.57;100.00;99825.56;5222210;28;20041;-49
2023/10/24 03:28:03;;;;;;;3.13;2.38;;;13.50;99.90;;;13.58;100.00;99837.78;5229426;28;20065;-49
2023/10/24 03:30:35;;;;;;;3.60;2.28;;;13.50;99.90;;;13.60;100.00;99829.94;5223603;28;20249;-50
2023/10/24 03:33:08;;;;;;;3.92;2.03;;;13.50;99.90;;;13.59;100.00;99821.22;5222743;28;20056;-49
2023/10/24 03:35:40;;;;;;;3.80;2.00;;;13.50;99.90;;;13.58;100.00;99814.22;5219842;28;20049;-50
2023/10/24 03:38:13;;;;;;;2.55;1.75;;;13.50;99.90;;;13.58;100.00;99824.69;5221196;28;20053;-49
2023/10/24 03:40:46;;;;;;;2.72;1.70;;;13.50;99.90;;;13.59;100.00;99821.22;5223639;28;20040;-49
2023/10/24 03:43:19;;;;;;;3.00;1.33;;;13.50;99.90;;;13.61;100.00;99822.09;5219970;28;20389;-52
2023/10/24 03:45:51;;;;;;;2.85;1.38;;;13.50;99.90;;;13.63;100.00;99832.56;5215324;28;20050;-49
2023/10/24 03:48:23;;;;;;;1.58;1.10;;;13.60;99.90;;;13.64;100.00;99842.19;5217317;28;20042;-50
2023/10/24 03:50:56;;;;;;;2.00;1.23;;;13.60;99.90;;;13.65;100.00;99829.09;5219434;28;20072;-49
2023/10/24 03:53:29;;;;;;;1.77;1.02;;;13.60;99.90;;;13.65;100.00;99823.00;5223221;28;20049;-50
2023/10/24 03:56:02;;;;;;;1.50;0.93;;;13.50;99.90;;;13.67;100.00;99819.50;5225884;28;20412;-50
2023/10/24 03:58:38;;;;;;;2.55;1.10;;;13.60;99.90;;;13.68;100.00;99820.38;5216414;28;20045;-49
2023/10/24 04:01:10;;;;;;;1.20;1.08;;;13.60;99.90;;;13.68;100.00;99816.03;5221385;28;20059;-48
2023/10/24 04:03:42;;;;;;;1.33;0.88;;;13.60;99.90;;;13.70;100.00;99814.31;5219645;28;20511;-49
2023/10/24 04:06:15;;;;;;;1.40;1.02;;;13.60;99.90;;;13.69;100.00;99815.19;5223690;28;20041;-49
2023/10/24 04:08:47;;;;;;;2.63;0.82;;;13.60;99.90;;;13.72;100.00;99819.56;5215717;28;20045;-50
2023/10/24 04:11:21;;;;;;;2.58;1.10;;;13.60;99.90;;;13.72;100.00;99809.94;5210955;28;20045;-49
2023/10/24 04:13:54;;;;;;;0.98;0.85;;;13.60;99.90;;;13.72;100.00;99820.44;5223314;28;20045;-50
2023/10/24 04:16:26;;;;;;;1.15;0.90;;;13.60;99.90;;;13.71;100.00;99818.69;5220858;28;20064;-50
2023/10/24 04:18:58;;;;;;;1.35;1.10;;;13.60;99.90;;;13.70;100.00;99827.41;5231099;28;20385;-49
2023/10/24 04:21:31;;;;;;;1.92;1.10;;;13.60;99.90;;;13.70;100.00;99824.78;5220567;28;20053;-49
2023/10/24 04:24:03;;;;;;;2.03;1.08;;;13.60;99.90;;;13.70;100.00;99837.00;5227044;28;20045;-50
2023/10/24 04:26:40;;;;;;;1.90;0.95;;;13.60;99.90;;;13.70;100.00;99823.91;5218203;28;20045;-50
2023/10/24 04:29:13;;;;;;;2.58;0.98;;;13.60;99.90;;;13.70;100.00;99821.28;5222105;28;20504;-50
2023/10/24 04:31:45;;;;;;;1.45;1.17;;;13.60;99.90;;;13.71;100.00;99830.91;5222351;28;20508;-49
2023/10/24 04:34:17;;;;;;;1.65;1.00;;;13.60;99.90;;;13.73;100.00;99834.41;5222358;28;20056;-51
2023/10/24 04:36:53;;;;;;;1.60;0.93;;;13.60;99.90;;;13.71;100.00;99821.28;5225837;28;20045;-50
2023/10/24 04:39:26;;;;;;;1.00;0.90;;;13.60;99.90;;;13.72;100.00;99811.69;5221080;28;20551;-51
2023/10/24 04:41:59;;;;;;;2.28;0.95;;;13.60;99.90;;;13.71;100.00;99821.28;5224608;28;20041;-50
2023/10/24 04:44:32;;;;;;;1.83;0.98;;;13.60;99.90;;;13.71;100.00;99809.94;5223499;28;20093;-50
2023/10/24 04:47:06;;;;;;;1.33;0.80;;;13.60;99.90;;;13.69;100.00;99809.94;5222427;28;20037;-52
2023/10/24 04:49:38;;;;;;;1.77;0.90;;;13.60;99.90;;;13.71;100.00;99809.94;5221122;28;20409;-50
2023/10/24 04:52:12;;;;;;;2.42;1.05;;;13.60;99.90;;;13.71;100.00;99820.44;5219626;28;20444;-51
2023/10/24 04:54:48;;;;;;;1.08;0.90;;;13.60;99.90;;;13.70;100.00;99819.56;5221682;28;20051;-50
2023/10/24 04:57:21;;;;;;;1.00;0.85;;;13.60;99.90;;;13.69;100.00;99809.94;5218882;28;20057;-49
2023/10/24 04:59:54;;;;;;;0.80;0.80;;;13.60;99.90;;;13.69;100.00;99809.03;5218256;28;20053;-49
2023/10/24 05:02:26;;;;;;;1.25;0.90;;;13.60;99.90;;;13.68;100.00;99804.66;5218717;28;20075;-49
2023/10/24 05:04:58;;;;;;;1.17;0.73;;;13.60;99.90;;;13.64;100.00;99805.53;5224578;28;20044;-49
2023/10/24 05:07:30;;;;;;;1.30;0.80;;;13.60;99.90;;;13.61;100.00;99798.53;5225665;28;20049;-50
2023/10/24 05:10:04;;;;;;;1.20;0.85;;;13.60;99.90;;;13.61;100.00;99797.66;5219748;28;20037;-50
2023/10/24 05:12:40;;;;;;;0.88;0.80;;;13.50;99.90;;;13.61;100.00;99798.53;5221418;28;20103;-50
2023/10/24 05:15:13;;;;;;;1.45;0.75;;;13.60;99.90;;;13.60;100.00;99798.53;5221588;28;20049;-51
2023/10/24 05:17:45;;;;;;;1.08;0.80;;;13.50;99.90;;;13.59;100.00;99797.66;5213599;28;20048;-51
2023/10/24 05:20:18;;;;;;;0.60;0.60;;;13.50;99.90;;;13.59;100.00;99810.75;5217185;28;20054;-49
2023/10/24 05:22:53;;;;;;;1.25;0.75;;;13.50;99.90;;;13.57;100.00;99808.13;5221208;28;20077;-49
2023/10/24 05:25:25;;;;;;;1.13;0.65;;;13.50;99.90;;;13.58;100.00;99816.84;5215656;28;20049;-49
2023/10/24 05:27:59;;;;;;;1.73;0.60;;;13.50;99.90;;;13.56;100.00;99805.47;5218139;28;20458;-48
2023/10/24 05:30:31;;;;;;;1.05;0.63;;;13.50;99.90;;;13.55;100.00;99811.56;5223287;28;20041;-49
2023/10/24 05:33:07;;;;;;;0.95;0.70;;;13.50;99.90;;;13.54;100.00;99796.72;5220356;28;20044;-49
2023/10/24 05:35:46;;;;;;;1.70;0.70;;;13.40;99.90;;;13.52;100.00;99808.94;5216442;28;20057;-48
2023/10/24 05:38:19;;;;;;;0.65;0.65;;;13.40;99.90;;;13.51;100.00;99796.72;5218185;28;20515;-51
2023/10/24 05:40:54;;;;;;;0.70;0.60;;;13.50;99.90;;;13.51;100.00;99804.56;5221811;28;20060;-49
2023/10/24 05:43:28;;;;;;;0.52;0.50;;;13.40;99.90;;;13.49;100.00;99803.66;5217670;28;20063;-49
2023/10/24 05:46:01;;;;;;;0.55;0.55;;;13.40;99.90;;;13.48;100.00;99809.78;5219184;28;20049;-49
2023/10/24 05:48:33;;;;;;;0.63;0.60;;;13.40;99.90;;;13.48;100.00;99799.31;5221954;28;20063;-52
2023/10/24 05:51:10;;;;;;;0.60;0.60;;;13.40;99.90;;;13.46;100.00;99790.56;5224481;28;20183;-50
2023/10/24 05:53:43;;;;;;;0.63;0.63;;;13.40;99.90;;;13.45;100.00;99780.97;5226786;28;20143;-49
2023/10/24 05:56:15;;;;;;;0.60;0.60;;;13.40;99.90;;;13.42;100.00;99787.03;5223999;28;20609;-49
2023/10/24 05:58:52;;;;;;;0.65;0.65;;;13.40;99.90;;;13.41;100.00;99797.50;5229954;28;20049;-50
2023/10/24 06:01:25;;;;;;;0.65;0.43;;;13.30;99.90;;;13.38;100.00;99800.13;5217439;28;20571;-49
2023/10/24 06:03:57;;;;;;;0.70;0.50;;;13.30;99.90;;;13.37;100.00;99790.50;5227587;28;20064;-49
2023/10/24 06:06:29;;;;;;;0.70;0.70;;;13.20;99.90;;;13.34;100.00;99786.13;5228964;28;20052;-49
2023/10/24 06:09:05;;;;;;;0.45;0.43;;;13.20;99.90;;;13.32;100.00;99786.97;5222360;28;20064;-50
2023/10/24 06:11:38;;;;;;;0.68;0.50;;;13.20;99.90;;;13.29;100.00;99786.06;5223056;28;20616;-49
2023/10/24 06:14:11;;;;;;;0.73;0.40;;;13.20;99.90;;;13.26;100.00;99782.56;5222796;28;20415;-51
2023/10/24 06:16:47;;;;;;;1.25;0.63;;;13.20;99.90;;;13.24;100.00;99782.56;5226836;28;20543;-49
2023/10/24 06:19:19;;;;;;;1.85;0.80;;;13.20;99.90;;;13.23;100.00;99791.25;5228430;28;20049;-49
2023/10/24 06:21:52;;;;;;;0.95;0.88;;;13.20;99.90;;;13.22;100.00;99789.50;5223718;28;20048;-49
2023/10/24 06:24:24;;;;;;;0.98;0.60;;;13.10;99.90;;;13.22;100.00;99780.78;5248431;28;20059;-48
2023/10/24 06:26:56;;;;;;;0.85;0.63;;;13.10;99.90;;;13.21;100.00;99777.28;5225633;28;20036;-49
2023/10/24 06:29:32;;;;;;;1.05;0.63;;;13.10;99.90;;;13.20;100.00;99786.00;5228273;28;20385;-50
2023/10/24 06:32:06;;;;;;;1.50;0.65;;;13.10;99.90;;;13.20;100.00;99785.09;5226574;28;20056;-50
2023/10/24 06:34:38;;;;;;;0.73;0.52;;;13.10;99.90;;;13.20;100.00;99791.25;5224689;28;20054;-49
2023/10/24 06:37:13;;;;;;;0.82;0.60;;;13.10;99.90;;;13.19;100.00;99799.94;5225480;28;20076;-50
2023/10/24 06:39:46;;;;;;;0.90;0.70;;;13.10;99.90;;;13.17;100.00;99788.59;5226088;28;20064;-51
2023/10/24 06:42:19;;;;;;;0.60;0.52;;;13.10;99.90;;;13.15;100.00;99787.66;5222426;28;20042;-50
2023/10/24 06:44:53;;;;;;;0.60;0.60;;;13.10;99.90;;;13.14;100.00;99796.38;5227056;28;20087;-50
2023/10/24 06:47:25;;;;;;;1.02;0.77;;;13.00;99.90;;;13.10;100.00;99794.59;5228109;28;20057;-50
2023/10/24 06:49:58;;;;;;;0.60;0.60;;;13.00;99.90;;;13.09;100.00;99786.75;5222504;28;20041;-50
2023/10/24 06:52:31;;;;;;;0.52;0.50;;;13.00;99.90;;;13.07;100.00;99781.50;5231664;28;20045;-51
2023/10/24 06:55:04;;;;;;;0.82;0.60;;;13.00;99.90;;;13.05;100.00;99793.72;5223936;28;20041;-51
2023/10/24 06:57:37;;;;;;;1.15;0.80;;;13.00;99.90;;;13.03;100.00;99784.94;5227639;28;20771;-49
2023/10/24 07:00:12;;;;;;;0.70;0.70;;;12.90;99.90;;;13.02;100.00;99785.81;5227270;28;20036;-49
2023/10/24 07:02:45;;;;;;;0.40;0.40;;;12.90;99.90;;;13.01;100.00;99784.94;5225284;28;20535;-49
2023/10/24 07:05:17;;;;;;;0.70;0.70;;;12.90;99.90;;;13.02;100.00;99791.03;5223782;28;20500;-50
2023/10/24 07:07:50;;;;;;;0.88;0.77;;;12.90;99.90;;;13.01;100.00;99790.16;5217486;28;20504;-49
2023/10/24 07:10:22;;;;;;;0.70;0.70;;;12.90;99.90;;;13.02;100.00;99783.19;5220865;28;20053;-48
2023/10/24 07:12:55;;;;;;;1.45;0.93;;;12.90;99.90;;;13.00;100.00;99784.94;5219422;28;20364;-49
2023/10/24 07:15:28;;;;;;;1.17;0.90;;;12.90;99.90;;;13.01;100.00;99784.06;5219732;28;20049;-50
2023/10/24 07:18:01;;;;;;;1.48;0.82;;;12.90;99.90;;;13.01;100.00;99781.44;5223128;28;20052;-49
2023/10/24 07:20:36;;;;;;;1.50;1.17;;;12.90;99.90;;;12.98;100.00;99778.81;5224160;28;20056;-53
2023/10/24 07:23:12;;;;;;;1.15;0.90;;;12.90;99.90;;;12.98;100.00;99781.44;5228510;28;20045;-50
2023/10/24 07:25:44;;;;;;;1.38;1.05;;;12.90;99.90;;;12.98;100.00;99784.06;5224336;28;20563;-50
2023/10/24 07:28:17;;;;;;;1.20;0.95;;;12.90;99.90;;;12.99;100.00;99785.81;5219194;28;20441;-50
2023/10/24 07:30:54;;;;;;;0.93;0.82;;;12.90;99.90;;;13.00;100.00;99784.94;5224375;28;20041;-49
2023/10/24 07:33:26;;;;;;;1.10;0.80;;;12.90;99.90;;;13.03;100.00;99795.41;5220318;28;20045;-49
2023/10/24 07:36:05;;;;;;;1.40;0.93;;;12.90;99.90;;;13.04;100.00;99795.44;5223542;28;20041;-49
2023/10/24 07:38:38;;;;;;;3.58;1.10;;;12.90;99.90;;;13.05;100.00;99796.31;5220492;28;20049;-50
2023/10/24 07:41:11;;;;;;;1.55;0.95;;;13.00;99.90;;;13.07;100.00;99805.06;5225113;28;20064;-50
2023/10/24 07:43:44;;;;;;;1.85;0.90;;;13.00;99.90;;;13.11;100.00;99809.47;5226560;28;20107;-49
2023/10/24 07:46:18;;;;;;;1.98;0.95;;;13.00;99.90;;;13.42;100.00;99807.97;5225716;28;20545;-48
2023/10/24 07:48:52;;;;;;;2.50;1.15;;;13.30;99.90;;;13.61;100.00;99805.50;5223147;28;20140;-48
2023/10/24 07:51:27;;;;;;;2.00;1.13;;;13.40;99.90;;;13.62;100.00;99805.50;5223340;28;20499;-48
2023/10/24 07:53:59;;;;;;;3.30;1.85;;;13.50;99.90;;;13.62;100.00;99797.66;5226190;28;20102;-47
2023/10/24 07:56:32;;;;;;;1.73;1.40;;;13.60;99.90;;;13.63;100.00;99809.91;5229466;28;20052;-48
2023/10/24 07:59:08;;;;;;;2.05;1.10;;;13.50;99.90;;;13.72;100.00;99830.91;5220908;28;20040;-48
2023/10/24 08:01:42;;;;;;;1.38;0.95;;;13.60;99.90;;;13.80;100.00;99831.81;5218806;28;20072;-48
2023/10/24 08:04:14;;;;;;;2.13;1.10;;;13.70;99.90;;;13.93;100.00;99838.00;5223143;28;20831;-47
2023/10/24 08:06:46;;;;;;;3.30;1.10;;;13.80;99.90;;;14.05;100.00;99838.09;5220688;28;20059;-49
2023/10/24 08:09:22;;;;;;;3.53;1.40;;;13.90;99.90;;;14.10;100.00;99831.13;5224156;28;20056;-48
2023/10/24 08:11:54;;;;;;;1.58;0.98;;;14.00;99.90;;;14.19;100.00;99835.53;5217340;28;20045;-49
2023/10/24 08:14:27;;;;;;;1.77;0.93;;;14.00;99.90;;;14.22;100.00;99832.94;5229448;28;20412;-48
2023/10/24 08:17:00;;;;;;;1.27;1.00;;;14.10;99.90;;;14.26;100.00;99821.59;5221185;28;20045;-48
2023/10/24 08:19:33;;;;;;;2.10;1.10;;;14.10;99.90;;;14.30;100.00;99833.84;5230507;28;20040;-48
2023/10/24 08:22:05;;;;;;;1.30;0.93;;;14.20;99.90;;;14.38;100.00;99842.63;5222053;28;20068;-48
2023/10/24 08:24:38;;;;;;;1.88;1.00;;;14.20;99.90;;;14.45;100.00;99842.63;5227930;28;20072;-48
2023/10/24 08:27:13;;;;;;;2.30;1.00;;;14.30;99.90;;;14.55;100.00;99844.47;5221153;28;20053;-48
2023/10/24 08:29:46;;;;;;;1.17;1.00;;;14.40;99.90;;;14.61;100.00;99834.88;5229706;28;20048;-48
2023/10/24 08:32:19;;;;;;;1.17;0.70;;;14.50;99.90;;;14.67;100.00;99826.16;5222660;28;20055;-47
2023/10/24 08:34:52;;;;;;;1.30;0.90;;;14.60;99.90;;;14.71;100.00;99841.00;5228583;28;20061;-49
2023/10/24 08:37:24;;;;;;;0.95;0.95;;;14.60;99.90;;;14.72;100.00;99840.13;5213594;28;20049;-48
2023/10/24 08:39:56;;;;;;;1.75;0.73;;;14.60;99.90;;;14.74;100.00;99853.28;5226209;28;20451;-48
2023/10/24 08:42:30;;;;;;;2.00;0.82;;;14.60;99.90;;;14.76;100.00;99849.78;5229699;28;20049;-48
2023/10/24 08:45:03;;;;;;;1.20;1.10;;;14.60;99.90;;;14.79;100.00;99851.53;5228253;28;20511;-47
2023/10/24 08:47:37;;;;;;;1.25;0.88;;;14.60;99.90;;;14.82;100.00;99859.41;5222296;28;20048;-47
2023/10/24 08:50:10;;;;;;;1.10;0.82;;;14.70;99.90;;;14.86;100.00;99850.66;5227643;28;20045;-48
2023/10/24 08:52:45;;;;;;;2.20;0.93;;;14.70;99.90;;;14.92;100.00;99856.81;5229380;28;20056;-49
2023/10/24 08:55:18;;;;;;;;;;;14.80;99.90;;;14.93;100.00;99848.09;5219683;28;20041;-47
2023/10/24 08:57:52;;;;;;;1.05;0.75;;;14.80;99.90;;;14.99;100.00;99851.56;5216057;28;19925;-48
2023/10/24 09:00:24;;;;;;;1.65;1.55;;;14.80;99.90;;;15.00;100.00;99838.47;5217854;28;20037;-47
2023/10/24 09:03:00;;;;;;;2.67;1.13;;;14.80;99.90;;;15.05;100.00;99838.47;5223951;28;20048;-48
2023/10/24 09:05:35;;;;;;;1.25;0.82;;;14.90;99.90;;;15.09;100.00;99848.09;5229215;28;20045;-47
2023/10/24 09:08:08;;;;;;;1.23;0.90;;;14.90;99.90;;;15.07;100.00;99857.72;5224519;28;20061;-49
2023/10/24 09:10:40;;;;;;;1.55;0.90;;;14.90;99.90;;;15.01;100.00;99844.59;5228704;28;20428;-50
2023/10/24 09:13:15;;;;;;;1.70;0.90;;;14.90;99.90;;;14.92;100.00;99846.31;5219528;28;20051;-49
2023/10/24 09:16:06;;;;;;;1.45;0.93;;;14.80;99.90;;;14.85;100.00;99841.94;5228570;28;20053;-49
2023/10/24 09:18:41;;;;;;;1.35;1.00;;;14.80;99.90;;;14.79;100.00;99843.66;5218253;28;20046;-52
2023/10/24 09:21:13;;;;;;;1.42;0.77;;;14.70;99.90;;;14.71;100.00;99838.41;5216563;28;20041;-50
2023/10/24 09:23:48;;;;;;;1.48;0.80;;;14.60;99.90;;;14.66;100.00;99837.50;5228190;28;20064;-49
2023/10/24 09:26:23;;;;;;;1.58;0.90;;;14.60;99.90;;;14.60;100.00;99829.59;5218833;28;20130;-49
2023/10/24 09:28:58;;;;;;;0.82;0.70;;;14.50;99.90;;;14.59;100.00;99831.34;5213403;28;20068;-49
2023/10/24 09:31:31;;;;;;;1.27;0.90;;;14.50;99.90;;;14.54;100.00;99825.25;5218322;28;20049;-49
2023/10/24 09:34:04;;;;;;;1.20;0.73;;;14.40;99.90;;;14.52;100.00;99829.59;5227505;28;20067;-48
2023/10/24 09:36:37;;;;;;;1.25;0.77;;;14.40;99.90;;;14.51;100.00;99829.59;5224203;28;20618;-49
2023/10/24 09:39:13;;;;;;;1.67;1.00;;;14.40;99.90;;;14.49;100.00;99831.34;5223399;28;20041;-49
2023/10/24 09:41:47;;;;;;;2.03;1.08;;;14.40;99.90;;;14.51;100.00;99826.97;5220275;28;20499;-49
2023/10/24 09:44:21;;;;;;;3.13;1.20;;;14.40;99.90;;;14.51;100.00;99816.47;5221221;28;20140;-49
2023/10/24 09:46:54;;;;;;;1.75;1.10;;;14.30;99.90;;;14.53;100.00;99809.47;5227734;28;20411;-50
2023/10/24 09:49:28;;;;;;;1.83;0.93;;;14.40;99.90;;;14.59;100.00;99805.13;5228601;28;20048;-49
2023/10/24 09:52:01;;;;;;;2.13;1.20;;;14.40;99.90;;;14.70;100.00;99806.91;5222850;28;20045;-49
2023/10/24 09:54:34;;;;;;;1.73;0.82;;;14.50;99.90;;;14.75;100.00;99800.81;5228471;28;20041;-49
2023/10/24 09:57:06;;;;;;;1.27;0.80;;;14.50;99.90;;;14.79;100.00;99793.81;5221770;28;20235;-49
2023/10/24 09:59:40;;;;;;;3.58;1.10;;;14.60;99.90;;;14.84;100.00;99795.56;5224654;28;20547;-51
2023/10/24 10:02:14;;;;;;;3.80;1.15;;;14.60;99.90;;;14.91;100.00;99799.09;5222034;28;20511;-48
2023/10/24 10:04:49;;;;;;;1.02;0.93;;;14.70;99.90;;;14.99;100.00;99804.34;5216955;28;20500;-50
2023/10/24 10:07:22;;;;;;;1.55;0.75;;;14.80;99.90;;;15.01;100.00;99797.38;5208796;28;20053;-49
2023/10/24 10:09:55;;;;;;;1.23;0.90;;;14.80;99.90;;;15.05;100.00;99789.47;5220524;28;20041;-48
2023/10/24 10:12:29;;;;;;;1.83;0.73;;;14.80;99.90;;;15.09;100.00;99795.59;5213305;28;20069;-49
2023/10/24 10:15:21;;;;;;;2.35;0.70;;;14.90;99.90;;;15.14;100.00;99788.63;5214530;28;20068;-50
2023/10/24 10:18:00;;;;;;;1.58;0.90;;;14.90;99.90;;;15.18;100.00;99793.84;5225092;28;20578;-49
2023/10/24 10:20:50;;;;;;;3.92;1.02;;;15.00;99.90;;;15.25;100.00;99789.47;5218848;28;20041;-49
2023/10/24 10:23:46;;;;;;;1.00;0.68;;;15.00;99.90;;;15.27;100.00;99794.75;5217629;28;20049;-49
2023/10/24 10:26:24;;;;;;;0.80;0.80;;;15.00;99.90;;;15.30;100.00;99790.34;5221197;28;20048;-50
2023/10/24 10:29:08;;;;;;;1.60;1.00;;;15.10;99.90;;;15.36;100.00;99774.59;5228576;28;20507;-49
2023/10/24 10:31:57;;;;;;;2.13;0.73;;;15.10;99.90;;;15.37;100.00;99781.59;5224110;28;20515;-49
2023/10/24 10:34:37;;;;;;;1.50;1.10;;;15.10;99.90;;;15.37;100.00;99778.09;5217895;28;20045;-49
2023/10/24 10:37:11;;;;;;;1.38;0.88;;;15.10;99.90;;;15.35;100.00;99775.47;5220506;28;20086;-49
2023/10/24 10:40:07;;;;;;;1.42;0.63;;;15.20;99.90;;;15.32;100.00;99766.72;5223610;28;20056;-49